createdAt,value
2018-11-03T00:00:57.671Z,683.20
2018-11-03T00:03:27.645Z,684.87
2018-11-03T00:05:57.541Z,675.90
2018-11-03T00:08:27.065Z,691.57
2018-11-03T00:10:56.549Z,673.62
2018-11-03T00:13:27.149Z,687.08
2018-11-03T00:15:56.612Z,679.98
2018-11-03T00:18:26.070Z,683.50
2018-11-03T00:20:55.515Z,680.90
2018-11-03T00:23:25.020Z,688.95
2018-11-03T00:25:55.523Z,679.40
2018-11-03T00:28:25.033Z,675.50
2018-11-03T00:30:54.603Z,667.65
2018-11-03T00:33:24.154Z,665.25
2018-11-03T00:35:54.208Z,666.57
2018-11-03T00:38:23.770Z,673.30
2018-11-03T00:40:53.209Z,669.45
2018-11-03T00:43:22.769Z,671.20
2018-11-03T00:45:52.185Z,661.70
2018-11-03T00:48:21.697Z,667.98
2018-11-03T00:50:51.310Z,658.07
2018-11-03T00:53:20.700Z,658.85
2018-11-03T00:55:51.160Z,665.67
2018-11-03T00:58:20.637Z,663.10
2018-11-03T01:00:50.194Z,672.92
2018-11-03T01:03:19.609Z,668.30
2018-11-03T01:05:49.262Z,661.33
2018-11-03T01:08:18.711Z,669.60
2018-11-03T01:10:48.160Z,672.42
2018-11-03T01:13:17.614Z,666.20
2018-11-03T01:15:47.090Z,659.35
2018-11-03T01:18:16.530Z,664.10
2018-11-03T01:20:45.914Z,653.55
2018-11-03T01:23:15.459Z,664.85
2018-11-03T01:25:44.995Z,659.87
2018-11-03T01:28:14.603Z,654.77
2018-11-03T01:30:44.132Z,658.17
2018-11-03T01:33:14.620Z,659.33
2018-11-03T01:35:44.179Z,658.12
2018-11-03T01:38:13.533Z,660.02
2018-11-03T01:40:42.972Z,663.40
2018-11-03T01:43:12.439Z,653.10
2018-11-03T01:45:42.086Z,652.65
2018-11-03T01:48:11.603Z,656.00
2018-11-03T01:50:41.081Z,641.92
2018-11-03T01:53:10.566Z,649.08
2018-11-03T01:55:39.957Z,644.90
2018-11-03T01:58:09.417Z,645.25
2018-11-03T02:00:39.399Z,651.97
2018-11-03T02:03:09.847Z,650.30
2018-11-03T02:05:39.415Z,653.38
2018-11-03T02:08:08.910Z,658.83
2018-11-03T02:10:39.361Z,667.27
2018-11-03T02:13:08.753Z,661.08
2018-11-03T02:15:38.296Z,658.90
2018-11-03T02:18:07.852Z,655.17
2018-11-03T02:20:37.355Z,662.20
2018-11-03T02:23:06.910Z,663.27
2018-11-03T02:25:37.327Z,657.95
2018-11-03T02:28:07.766Z,659.75
2018-11-03T02:30:37.226Z,659.80
2018-11-03T02:33:06.644Z,657.47
2018-11-03T02:35:36.100Z,659.83
2018-11-03T02:38:05.554Z,658.07
2018-11-03T02:40:35.008Z,654.40
2018-11-03T02:43:04.863Z,654.02
2018-11-03T02:45:34.263Z,650.40
2018-11-03T02:48:04.363Z,655.58
2018-11-03T02:50:33.843Z,650.05
2018-11-03T02:53:03.245Z,641.45
2018-11-03T02:55:32.665Z,643.37
2018-11-03T02:58:02.214Z,639.42
2018-11-03T03:00:32.723Z,642.75
2018-11-03T03:03:02.230Z,630.05
2018-11-03T03:05:31.773Z,638.27
2018-11-03T03:08:01.209Z,642.83
2018-11-03T03:10:30.684Z,642.90
2018-11-03T03:13:00.120Z,648.05
2018-11-03T03:15:29.674Z,638.45
2018-11-03T03:18:00.173Z,642.83
2018-11-03T03:20:29.736Z,647.90
2018-11-03T03:22:59.265Z,639.70
2018-11-03T03:25:28.669Z,632.67
2018-11-03T03:27:58.117Z,630.17
2018-11-03T03:30:27.616Z,628.10
2018-11-03T03:32:58.152Z,631.35
2018-11-03T03:35:27.558Z,623.07
2018-11-03T03:37:57.054Z,628.70
2018-11-03T03:40:27.533Z,641.27
2018-11-03T03:42:57.013Z,638.75
2018-11-03T03:45:27.158Z,632.70
2018-11-03T03:47:57.735Z,633.93
2018-11-03T03:50:27.297Z,630.37
2018-11-03T03:52:56.775Z,627.75
2018-11-03T03:55:26.164Z,635.67
2018-11-03T03:57:57.622Z,635.15
2018-11-03T04:00:27.123Z,640.90
2018-11-03T04:02:56.585Z,650.48
2018-11-03T04:05:26.031Z,633.45
2018-11-03T04:07:56.473Z,641.95
2018-11-03T04:10:25.971Z,648.58
2018-11-03T04:12:55.471Z,653.88
2018-11-03T04:15:25.692Z,640.12
2018-11-03T04:17:55.277Z,632.10
2018-11-03T04:20:25.777Z,630.52
2018-11-03T04:22:55.310Z,631.27
2018-11-03T04:25:24.729Z,623.08
2018-11-03T04:27:54.245Z,613.45
2018-11-03T04:30:23.682Z,611.30
2018-11-03T04:32:53.128Z,605.45
2018-11-03T04:35:22.504Z,611.85
2018-11-03T04:37:51.984Z,619.15
2018-11-03T04:40:21.480Z,606.78
2018-11-03T04:42:52.037Z,590.55
2018-11-03T04:45:21.523Z,587.80
2018-11-03T04:47:50.977Z,589.37
2018-11-03T04:50:20.443Z,596.72
2018-11-03T04:52:50.836Z,588.92
2018-11-03T04:55:20.384Z,590.20
2018-11-03T04:57:49.731Z,603.10
2018-11-03T05:00:19.179Z,601.37
2018-11-03T05:02:48.747Z,597.65
2018-11-03T05:05:19.236Z,587.98
2018-11-03T05:07:49.275Z,584.70
2018-11-03T05:10:18.848Z,595.80
2018-11-03T05:12:48.236Z,591.35
2018-11-03T05:15:17.774Z,586.55
2018-11-03T05:17:47.178Z,586.62
2018-11-03T05:20:16.609Z,585.92
2018-11-03T05:22:46.033Z,595.98
2018-11-03T05:25:15.663Z,587.67
2018-11-03T05:27:46.049Z,598.10
2018-11-03T05:30:15.560Z,586.62
2018-11-03T05:32:45.026Z,593.80
2018-11-03T05:35:14.496Z,578.48
2018-11-03T05:37:43.921Z,579.40
2018-11-03T05:40:13.502Z,582.40
2018-11-03T05:42:42.959Z,576.50
2018-11-03T05:45:12.489Z,572.73
2018-11-03T05:47:41.940Z,576.77
2018-11-03T05:50:11.881Z,579.90
2018-11-03T05:52:41.421Z,587.23
2018-11-03T05:55:11.154Z,593.00
2018-11-03T05:57:40.547Z,585.43
2018-11-03T06:00:10.645Z,580.03
2018-11-03T06:02:40.178Z,585.63
2018-11-03T06:05:10.236Z,586.67
2018-11-03T06:07:39.682Z,594.73
2018-11-03T06:10:09.432Z,597.48
2018-11-03T06:12:39.700Z,603.70
2018-11-03T06:15:09.192Z,609.63
2018-11-03T06:17:38.727Z,612.53
2018-11-03T06:20:08.345Z,618.63
2018-11-03T06:22:37.994Z,616.05
2018-11-03T06:25:09.086Z,603.20
2018-11-03T06:27:38.985Z,608.42
2018-11-03T06:30:10.126Z,599.20
2018-11-03T06:32:40.340Z,595.10
2018-11-03T06:35:11.724Z,590.47
2018-11-03T06:37:41.030Z,594.67
2018-11-03T06:40:10.567Z,583.20
2018-11-03T06:42:41.129Z,591.50
2018-11-03T06:45:11.257Z,589.50
2018-11-03T06:47:40.671Z,594.80
2018-11-03T06:50:10.258Z,587.90
2018-11-03T06:52:39.813Z,586.30
2018-11-03T06:55:09.229Z,592.67
2018-11-03T06:57:38.762Z,597.57
2018-11-03T07:00:09.269Z,594.08
2018-11-03T07:02:38.775Z,601.95
2018-11-03T07:05:09.169Z,597.55
2018-11-03T07:07:38.821Z,598.37
2018-11-03T07:10:09.178Z,588.42
2018-11-03T07:12:38.863Z,595.38
2018-11-03T07:15:09.158Z,593.80
2018-11-03T07:17:38.667Z,599.95
2018-11-03T07:20:09.619Z,604.40
2018-11-03T07:22:39.112Z,611.73
2018-11-03T07:25:08.755Z,608.45
2018-11-03T07:27:38.191Z,614.32
2018-11-03T07:30:10.730Z,619.47
2018-11-03T07:32:40.241Z,640.17
2018-11-03T07:35:09.722Z,632.75
2018-11-03T07:37:39.244Z,648.08
2018-11-03T07:40:10.458Z,642.90
2018-11-03T07:42:40.195Z,647.08
2018-11-03T07:45:10.551Z,647.20
2018-11-03T07:47:39.997Z,654.85
2018-11-03T07:50:11.335Z,661.30
2018-11-03T07:52:41.161Z,662.75
2018-11-03T07:55:12.017Z,669.90
2018-11-03T07:57:41.472Z,676.25
2018-11-03T08:00:12.824Z,683.38
2018-11-03T08:02:42.410Z,682.85
2018-11-03T08:05:12.532Z,689.42
2018-11-03T08:07:42.035Z,679.07
2018-11-03T08:10:12.849Z,679.42
2018-11-03T08:12:42.454Z,686.47
2018-11-03T08:15:12.666Z,680.55
2018-11-03T08:17:42.199Z,680.37
2018-11-03T08:20:12.137Z,670.70
2018-11-03T08:22:41.620Z,679.00
2018-11-03T08:25:11.127Z,683.02
2018-11-03T08:27:40.641Z,685.08
2018-11-03T08:30:12.266Z,696.08
2018-11-03T08:32:41.993Z,693.42
2018-11-03T08:35:12.224Z,693.48
2018-11-03T08:37:41.748Z,689.05
2018-11-03T08:40:12.352Z,689.75
2018-11-03T08:42:43.495Z,686.83
2018-11-03T08:45:13.032Z,675.15
2018-11-03T08:47:42.576Z,677.02
2018-11-03T08:50:13.579Z,675.22
2018-11-03T08:52:43.713Z,684.80
2018-11-03T08:55:13.848Z,681.15
2018-11-03T08:57:43.752Z,680.85
2018-11-03T09:00:14.443Z,687.85
2018-11-03T09:02:44.340Z,684.60
2018-11-03T09:05:13.770Z,690.05
2018-11-03T09:07:43.238Z,693.77
2018-11-03T09:10:14.019Z,696.50
2018-11-03T09:12:43.718Z,700.50
2018-11-03T09:15:14.868Z,703.77
2018-11-03T09:17:44.778Z,703.25
2018-11-03T09:20:14.346Z,704.03
2018-11-03T09:22:43.910Z,714.08
2018-11-03T09:25:14.555Z,712.80
2018-11-03T09:27:44.571Z,704.75
2018-11-03T09:30:16.199Z,700.30
2018-11-03T09:32:45.790Z,701.55
2018-11-03T09:35:16.055Z,683.23
2018-11-03T09:37:45.624Z,683.83
2018-11-03T09:40:16.511Z,675.62
2018-11-03T09:42:46.716Z,681.50
2018-11-03T09:45:16.249Z,683.15
2018-11-03T09:47:45.959Z,688.90
2018-11-03T09:50:15.963Z,685.70
2018-11-03T09:52:45.543Z,702.65
2018-11-03T09:55:16.752Z,708.13
2018-11-03T09:57:46.264Z,705.37
2018-11-03T10:00:17.069Z,694.15
2018-11-03T10:02:47.569Z,692.85
2018-11-03T10:05:17.391Z,691.27
2018-11-03T10:07:46.859Z,687.77
2018-11-03T10:10:17.792Z,683.65
2018-11-03T10:12:48.048Z,691.62
2018-11-03T10:15:18.570Z,695.55
2018-11-03T10:17:48.152Z,695.05
2018-11-03T10:20:17.670Z,701.15
2018-11-03T10:22:47.295Z,697.48
2018-11-03T10:25:18.157Z,714.52
2018-11-03T10:27:49.200Z,720.67
2018-11-03T10:30:18.973Z,728.30
2018-11-03T10:32:48.420Z,727.28
2018-11-03T10:35:18.506Z,737.25
2018-11-03T10:37:48.019Z,745.38
2018-11-03T10:40:18.724Z,754.30
2018-11-03T10:42:49.170Z,760.97
2018-11-03T10:45:18.680Z,766.73
2018-11-03T10:47:48.153Z,771.83
2018-11-03T10:50:18.931Z,782.00
2018-11-03T10:52:48.630Z,773.88
2018-11-03T10:55:19.121Z,780.42
2018-11-03T10:57:48.698Z,780.85
2018-11-03T11:00:24.715Z,780.95
2018-11-03T11:02:59.875Z,791.23
2018-11-03T11:05:35.514Z,800.73
2018-11-03T11:08:10.343Z,800.75
2018-11-03T11:10:45.235Z,801.82
2018-11-03T11:13:20.778Z,799.83
2018-11-03T11:15:51.846Z,795.73
2018-11-03T11:18:25.082Z,793.77
2018-11-03T11:20:54.654Z,788.33
2018-11-03T11:23:25.130Z,780.10
2018-11-03T11:25:54.634Z,779.17
2018-11-03T11:28:24.163Z,768.45
2018-11-03T11:30:59.009Z,761.25
2018-11-03T11:33:28.495Z,754.00
2018-11-03T11:35:57.946Z,767.45
2018-11-03T11:38:29.048Z,767.50
2018-11-03T11:40:58.477Z,760.48
2018-11-03T11:43:28.027Z,765.33
2018-11-03T11:45:57.527Z,767.45
2018-11-03T11:48:26.923Z,780.13
2018-11-03T11:50:56.356Z,786.33
2018-11-03T11:53:25.842Z,787.60
2018-11-03T11:55:55.435Z,798.50
2018-11-03T11:58:24.875Z,801.67
2018-11-03T12:00:57.537Z,806.70
2018-11-03T12:03:27.025Z,812.13
2018-11-03T12:05:56.441Z,825.43
2018-11-03T12:08:25.935Z,827.23
2018-11-03T12:10:55.565Z,834.50
2018-11-03T12:13:25.062Z,831.93
2018-11-03T12:15:54.528Z,837.90
2018-11-03T12:18:24.055Z,848.42
2018-11-03T12:20:54.065Z,842.30
2018-11-03T12:23:23.486Z,845.60
2018-11-03T12:25:52.979Z,853.30
2018-11-03T12:28:23.016Z,844.82
2018-11-03T12:30:52.496Z,847.70
2018-11-03T12:33:21.924Z,857.05
2018-11-03T12:35:51.524Z,857.85
2018-11-03T12:38:22.052Z,854.08
2018-11-03T12:40:51.641Z,859.13
2018-11-03T12:43:21.230Z,862.78
2018-11-03T12:45:54.680Z,862.53
2018-11-03T12:48:24.273Z,870.65
2018-11-03T12:50:53.590Z,873.30
2018-11-03T12:53:23.141Z,862.83
2018-11-03T12:55:52.522Z,865.92
2018-11-03T12:58:22.787Z,863.80
2018-11-03T13:00:52.308Z,865.85
2018-11-03T13:03:23.016Z,861.05
2018-11-03T13:05:52.369Z,865.98
2018-11-03T13:08:21.815Z,860.52
2018-11-03T13:10:52.370Z,861.48
2018-11-03T13:13:21.832Z,864.67
2018-11-03T13:15:52.290Z,869.82
2018-11-03T13:18:24.202Z,873.62
2018-11-03T13:20:53.573Z,867.25
2018-11-03T13:23:23.021Z,871.18
2018-11-03T13:25:52.477Z,877.22
2018-11-03T13:28:29.273Z,867.50
2018-11-03T13:30:58.745Z,874.95
2018-11-03T13:33:28.194Z,861.55
2018-11-03T13:35:57.608Z,866.05
2018-11-03T13:38:27.048Z,862.92
2018-11-03T13:40:56.781Z,861.35
2018-11-03T13:43:28.057Z,869.80
2018-11-03T13:45:57.472Z,873.67
2018-11-03T13:48:29.669Z,884.62
2018-11-03T13:50:59.136Z,875.45
2018-11-03T13:53:28.647Z,870.42
2018-11-03T13:55:58.782Z,874.80
2018-11-03T13:58:28.321Z,879.83
2018-11-03T14:00:57.751Z,894.97
2018-11-03T14:03:28.273Z,898.32
2018-11-03T14:05:59.069Z,890.40
2018-11-03T14:08:28.564Z,882.15
2018-11-03T14:10:58.028Z,872.98
2018-11-03T14:13:28.618Z,860.82
2018-11-03T14:15:59.188Z,845.63
2018-11-03T14:18:29.606Z,837.00
2018-11-03T14:21:00.077Z,836.37
2018-11-03T14:23:29.540Z,822.42
2018-11-03T14:25:58.955Z,823.70
2018-11-03T14:28:28.383Z,828.30
2018-11-03T14:30:57.903Z,825.33
2018-11-03T14:33:27.420Z,817.45
2018-11-03T14:35:56.818Z,802.20
2018-11-03T14:38:26.346Z,802.70
2018-11-03T14:40:55.888Z,808.50
2018-11-03T14:43:25.399Z,803.45
2018-11-03T14:45:54.992Z,793.10
2018-11-03T14:48:24.464Z,793.37
2018-11-03T14:50:54.967Z,783.02
2018-11-03T14:53:25.380Z,786.70
2018-11-03T14:55:54.766Z,774.55
2018-11-03T14:58:24.328Z,763.50
2018-11-03T15:00:53.812Z,752.20
2018-11-03T15:03:23.350Z,741.27
2018-11-03T15:05:52.987Z,736.30
2018-11-03T15:08:23.454Z,723.97
2018-11-03T15:10:52.971Z,719.45
2018-11-03T15:13:22.397Z,715.47
2018-11-03T15:15:54.884Z,708.05
2018-11-03T15:18:24.354Z,707.17
2018-11-03T15:20:53.847Z,698.73
2018-11-03T15:23:26.379Z,697.02
2018-11-03T15:25:55.917Z,687.58
2018-11-03T15:28:26.400Z,682.83
2018-11-03T15:30:55.957Z,678.52
2018-11-03T15:33:25.388Z,676.10
2018-11-03T15:35:55.020Z,675.98
2018-11-03T15:38:24.546Z,670.55
2018-11-03T15:40:54.174Z,663.27
2018-11-03T15:43:23.629Z,670.67
2018-11-03T15:45:53.265Z,656.13
2018-11-03T15:48:22.773Z,655.05
2018-11-03T15:50:52.798Z,653.92
2018-11-03T15:53:23.268Z,660.08
2018-11-03T15:55:53.773Z,665.80
2018-11-03T15:58:23.277Z,655.17
2018-11-03T16:00:53.438Z,644.70
2018-11-03T16:03:23.632Z,647.80
2018-11-03T16:05:53.085Z,646.55
2018-11-03T16:08:22.549Z,658.70
2018-11-03T16:10:52.071Z,653.23
2018-11-03T16:13:21.499Z,657.40
2018-11-03T16:15:51.564Z,655.73
2018-11-03T16:18:21.002Z,666.67
2018-11-03T16:20:51.560Z,662.08
2018-11-03T16:23:21.079Z,664.08
2018-11-03T16:25:50.670Z,672.27
2018-11-03T16:28:20.166Z,659.17
2018-11-03T16:30:49.672Z,660.85
2018-11-03T16:33:19.207Z,664.50
2018-11-03T16:35:49.736Z,666.20
2018-11-03T16:38:19.277Z,668.13
2018-11-03T16:40:48.838Z,665.67
2018-11-03T16:43:19.287Z,663.70
2018-11-03T16:45:49.786Z,671.15
2018-11-03T16:48:19.183Z,683.65
2018-11-03T16:50:48.705Z,676.50
2018-11-03T16:53:18.211Z,679.13
2018-11-03T16:55:48.790Z,681.10
2018-11-03T16:58:18.301Z,680.35
2018-11-03T17:00:47.786Z,683.58
2018-11-03T17:03:17.989Z,689.67
2018-11-03T17:05:47.576Z,680.22
2018-11-03T17:08:17.111Z,673.33
2018-11-03T17:10:46.729Z,681.58
2018-11-03T17:13:17.236Z,689.97
2018-11-03T17:15:46.771Z,686.73
2018-11-03T17:18:16.250Z,694.43
2018-11-03T17:20:45.847Z,701.30
2018-11-03T17:23:15.498Z,704.75
2018-11-03T17:25:44.905Z,691.95
2018-11-03T17:28:14.488Z,680.40
2018-11-03T17:30:44.217Z,682.60
2018-11-03T17:33:13.647Z,684.35
2018-11-03T17:35:43.077Z,682.40
2018-11-03T17:38:12.680Z,673.23
2018-11-03T17:40:42.892Z,681.65
2018-11-03T17:43:12.364Z,680.73
2018-11-03T17:45:42.432Z,692.10
2018-11-03T17:48:11.849Z,689.15
2018-11-03T17:50:41.809Z,688.48
2018-11-03T17:53:11.335Z,676.80
2018-11-03T17:55:42.417Z,682.17
2018-11-03T17:58:14.927Z,680.87
2018-11-03T18:00:44.650Z,672.70
2018-11-03T18:03:13.958Z,669.67
2018-11-03T18:05:43.582Z,674.05
2018-11-03T18:08:13.146Z,670.33
2018-11-03T18:10:42.649Z,664.83
2018-11-03T18:13:12.326Z,675.22
2018-11-03T18:15:41.785Z,661.25
2018-11-03T18:18:11.339Z,668.13
2018-11-03T18:20:40.832Z,651.60
2018-11-03T18:23:10.407Z,657.42
2018-11-03T18:25:40.797Z,659.77
2018-11-03T18:28:10.261Z,656.70
2018-11-03T18:30:39.805Z,664.48
2018-11-03T18:33:09.359Z,655.05
2018-11-03T18:35:38.786Z,668.50
2018-11-03T18:38:08.316Z,669.65
2018-11-03T18:40:37.890Z,670.97
2018-11-03T18:43:08.136Z,672.67
2018-11-03T18:45:37.711Z,669.70
2018-11-03T18:48:07.243Z,672.13
2018-11-03T18:50:36.702Z,671.33
2018-11-03T18:53:06.124Z,672.30
2018-11-03T18:55:35.564Z,658.12
2018-11-03T18:58:05.104Z,660.37
2018-11-03T19:00:34.624Z,663.48
2018-11-03T19:03:05.207Z,666.33
2018-11-03T19:05:34.713Z,675.58
2018-11-03T19:08:04.275Z,672.50
2018-11-03T19:10:33.812Z,669.60
2018-11-03T19:13:03.398Z,672.80
2018-11-03T19:15:33.880Z,666.58
2018-11-03T19:18:03.490Z,661.02
2018-11-03T19:20:33.058Z,668.25
2018-11-03T19:23:02.544Z,667.13
2018-11-03T19:25:33.085Z,678.95
2018-11-03T19:28:05.285Z,668.02
2018-11-03T19:30:34.766Z,668.83
2018-11-03T19:33:04.266Z,670.42
2018-11-03T19:35:33.748Z,668.27
2018-11-03T19:38:03.160Z,673.83
2018-11-03T19:40:32.562Z,660.90
2018-11-03T19:43:02.087Z,657.08
2018-11-03T19:45:32.523Z,652.88
2018-11-03T19:48:01.989Z,662.40
2018-11-03T19:50:31.427Z,658.30
2018-11-03T19:53:00.978Z,651.48
2018-11-03T19:55:30.427Z,656.83
2018-11-03T19:57:59.938Z,659.05
2018-11-03T20:00:29.430Z,653.97
2018-11-03T20:02:58.926Z,668.50
2018-11-03T20:05:28.286Z,667.85
2018-11-03T20:07:58.773Z,667.55
2018-11-03T20:10:28.174Z,661.55
2018-11-03T20:12:58.379Z,652.10
2018-11-03T20:15:27.932Z,653.10
2018-11-03T20:17:57.532Z,646.17
2018-11-03T20:20:28.004Z,651.00
2018-11-03T20:22:58.487Z,646.00
2018-11-03T20:25:28.715Z,643.35
2018-11-03T20:28:00.189Z,631.27
2018-11-03T20:30:29.769Z,642.05
2018-11-03T20:32:59.290Z,628.00
2018-11-03T20:35:28.708Z,615.28
2018-11-03T20:37:58.748Z,610.73
2018-11-03T20:40:28.309Z,622.87
2018-11-03T20:42:58.815Z,619.13
2018-11-03T20:45:28.327Z,613.05
2018-11-03T20:47:57.831Z,620.83
2018-11-03T20:50:27.360Z,618.25
2018-11-03T20:52:56.946Z,615.40
2018-11-03T20:55:26.366Z,618.50
2018-11-03T20:57:55.784Z,616.35
2018-11-03T21:00:25.236Z,604.48
2018-11-03T21:02:54.801Z,605.58
2018-11-03T21:05:24.221Z,609.77
2018-11-03T21:07:53.677Z,612.30
2018-11-03T21:10:23.804Z,611.27
2018-11-03T21:12:53.316Z,600.77
2018-11-03T21:15:22.728Z,593.33
2018-11-03T21:17:53.170Z,586.83
2018-11-03T21:20:23.705Z,587.57
2018-11-03T21:22:53.249Z,586.33
2018-11-03T21:25:22.750Z,605.30
2018-11-03T21:27:52.153Z,588.40
2018-11-03T21:30:21.604Z,589.67
2018-11-03T21:32:51.148Z,587.10
2018-11-03T21:35:20.590Z,579.90
2018-11-03T21:37:50.025Z,588.12
2018-11-03T21:40:19.722Z,600.10
2018-11-03T21:42:49.218Z,596.03
2018-11-03T21:45:22.747Z,593.85
2018-11-03T21:47:53.175Z,597.17
2018-11-03T21:50:23.747Z,608.62
2018-11-03T21:52:53.192Z,610.55
2018-11-03T21:55:23.724Z,609.52
2018-11-03T21:57:53.353Z,620.20
2018-11-03T22:00:22.800Z,609.22
2018-11-03T22:02:52.259Z,615.47
2018-11-03T22:05:21.771Z,621.75
2018-11-03T22:07:51.259Z,624.25
2018-11-03T22:10:20.776Z,623.23
2018-11-03T22:12:51.098Z,623.40
2018-11-03T22:15:20.583Z,614.87
2018-11-03T22:17:51.060Z,624.02
2018-11-03T22:20:21.238Z,628.35
2018-11-03T22:22:53.102Z,630.45
2018-11-03T22:25:22.636Z,630.27
2018-11-03T22:27:53.198Z,633.65
2018-11-03T22:30:22.639Z,636.80
2018-11-03T22:32:53.197Z,632.83
2018-11-03T22:35:22.628Z,637.25
2018-11-03T22:37:52.083Z,643.80
2018-11-03T22:40:21.594Z,646.40
2018-11-03T22:42:51.081Z,651.10
2018-11-03T22:45:21.484Z,650.77
2018-11-03T22:47:50.898Z,660.90
2018-11-03T22:51:18.264Z,663.72
2018-11-03T22:53:48.519Z,660.67
2018-11-03T22:56:19.000Z,663.92
2018-11-03T22:58:48.510Z,666.50
2018-11-03T23:01:18.114Z,654.40
2018-11-03T23:03:47.540Z,665.25
2018-11-03T23:06:20.843Z,668.77
2018-11-03T23:08:51.283Z,653.50
2018-11-03T23:11:21.783Z,657.33
2018-11-03T23:13:51.270Z,661.40
2018-11-03T23:16:20.629Z,666.05
2018-11-03T23:18:50.142Z,658.92
2018-11-03T23:21:20.651Z,662.10
2018-11-03T23:23:53.219Z,654.65
2018-11-03T23:26:23.448Z,648.00
2018-11-03T23:28:53.040Z,643.83
2018-11-03T23:31:22.490Z,644.62
2018-11-03T23:33:52.885Z,641.08
2018-11-03T23:36:23.085Z,642.03
2018-11-03T23:38:53.244Z,651.13
2018-11-03T23:41:22.786Z,639.92
2018-11-03T23:43:52.155Z,645.98
2018-11-03T23:46:21.744Z,647.23
2018-11-03T23:48:51.265Z,654.53
2018-11-03T23:51:20.691Z,652.28
2018-11-03T23:53:50.292Z,656.23
2018-11-03T23:56:20.566Z,656.33
2018-11-03T23:58:50.072Z,650.57
